Time;durP1;ratioP1;P1;durP2;ratioP2;P2;SDS_P1;SDS_P2;PMS_P1;PMS_P2;Temp;Humidity;BMP_temperature;BMP_pressure;BME280_temperature;BME280_humidity;BME280_pressure;Samples;Min_cycle;Max_cycle;Signal;HPM_P1;HPM_P2
2022/05/16 00:00:37;;;;;;;2.40;1.65;;;;;;;11.85;61.47;98387.88;5028151;28;20037;-61
2022/05/16 00:03:05;;;;;;;1.95;1.63;;;;;;;11.95;61.31;98403.88;5000774;28;20036;-62
2022/05/16 00:05:31;;;;;;;2.80;1.77;;;;;;;12.05;61.35;98424.09;4993145;28;20026;-63
2022/05/16 00:07:56;;;;;;;2.47;1.92;;;;;;;11.91;61.20;98416.13;4993208;28;20420;-62
2022/05/16 00:10:23;;;;;;;4.00;2.22;;;;;;;11.94;61.29;98418.59;5021521;28;20121;-62
2022/05/16 00:12:49;;;;;;;2.50;2.00;;;;;;;12.00;61.45;98417.47;5004773;28;20026;-62
2022/05/16 00:15:17;;;;;;;4.07;1.90;;;;;;;11.63;60.59;98356.91;5004966;28;20049;-63
2022/05/16 00:17:43;;;;;;;4.75;2.00;;;;;;;11.87;60.68;98412.84;4993012;28;20035;-63
2022/05/16 00:20:10;;;;;;;3.38;2.20;;;;;;;12.02;60.42;98415.66;4993104;28;20026;-62
2022/05/16 00:22:36;;;;;;;4.20;2.13;;;;;;;11.91;60.67;98418.72;5010899;28;20145;-64
2022/05/16 00:25:04;;;;;;;1.92;1.65;;;;;;;11.92;60.50;98418.63;5012327;28;20065;-62
2022/05/16 00:27:34;;;;;;;2.38;1.55;;;;;;;11.87;60.80;98423.22;5006038;28;20026;-62
2022/05/16 00:30:04;;;;;;;3.15;1.92;;;;;;;11.87;60.74;98422.34;5002584;28;20108;-62
2022/05/16 00:32:29;;;;;;;4.88;1.90;;;;;;;11.94;60.79;98423.78;5030758;28;20034;-62
2022/05/16 00:34:55;;;;;;;3.47;1.90;;;;;;;12.01;61.01;98425.16;4998562;28;20539;-64
2022/05/16 00:37:21;;;;;;;3.75;1.83;;;;;;;11.86;61.44;98424.13;5012434;28;20040;-63
2022/05/16 00:39:46;;;;;;;4.60;1.70;;;;;;;11.88;61.20;98432.66;5012422;28;20030;-64
2022/05/16 00:42:12;;;;;;;5.47;1.90;;;;;;;11.67;61.30;98394.75;5012266;28;20364;-64
2022/05/16 00:44:38;;;;;;;1.88;1.40;;;;;;;11.85;61.67;98429.38;5010185;28;20018;-64
2022/05/16 00:47:05;;;;;;;9.27;2.15;;;;;;;11.77;61.27;98416.75;4992741;28;20038;-64
2022/05/16 00:49:35;;;;;;;2.20;1.50;;;;;;;11.52;61.31;98368.66;4992515;28;20483;-65
2022/05/16 00:52:05;;;;;;;3.40;1.60;;;;;;;11.94;61.04;98441.13;5009855;28;20057;-65
2022/05/16 00:54:43;;;;;;;2.08;1.63;;;;;;;11.57;60.60;98371.88;5002759;28;20085;-64
2022/05/16 00:57:12;;;;;;;2.40;1.60;;;;;;;11.70;61.28;98410.19;5004865;28;20030;-64
2022/05/16 00:59:45;;;;;;;1.80;1.60;;;;;;;11.41;60.88;98373.50;4992608;28;20116;-64
2022/05/16 01:04:57;;;;;;;4.47;1.60;;;;;;;11.62;61.47;98427.88;4996539;28;20038;-65
2022/05/16 01:07:29;;;;;;;2.10;1.60;;;;;;;11.57;61.49;98452.25;5028681;28;20033;-65
2022/05/16 01:09:56;;;;;;;;;;;;;;;11.56;61.28;98435.00;5035196;28;20103;-65
2022/05/16 01:12:31;;;;;;;3.60;1.70;;;;;;;11.20;62.70;98378.75;5028134;28;19991;-65
2022/05/16 01:15:00;;;;;;;2.85;1.48;;;;;;;11.33;61.79;98398.91;5015839;28;20026;-65
2022/05/16 01:17:26;;;;;;;1.80;1.40;;;;;;;11.66;61.72;98435.44;5014440;28;20022;-64
2022/05/16 01:19:52;;;;;;;3.17;1.50;;;;;;;11.64;61.54;98437.25;5014450;28;20127;-64
2022/05/16 01:22:20;;;;;;;1.88;1.48;;;;;;;11.56;62.04;98429.81;5031156;28;20408;-65
2022/05/16 01:24:46;;;;;;;1.85;1.33;;;;;;;11.53;62.03;98434.31;5014161;28;20054;-65
2022/05/16 01:27:12;;;;;;;3.22;1.85;;;;;;;11.45;61.86;98437.25;4998232;28;20050;-65
2022/05/16 01:29:37;;;;;;;3.88;1.80;;;;;;;11.49;61.85;98446.56;4995989;28;20053;-64
2022/05/16 01:32:04;;;;;;;2.63;1.90;;;;;;;11.55;61.29;98438.50;4996333;28;20030;-63
2022/05/16 01:34:30;;;;;;;2.85;1.80;;;;;;;11.32;62.17;98436.97;4998134;28;20126;-63
2022/05/16 01:36:56;;;;;;;5.72;2.40;;;;;;;11.56;61.65;98442.78;5015794;28;20471;-62
2022/05/16 01:39:21;;;;;;;3.15;2.00;;;;;;;11.61;61.78;98446.94;5015372;28;20037;-63
2022/05/16 01:41:47;;;;;;;2.95;1.77;;;;;;;11.59;61.35;98447.00;5018201;28;20033;-63
2022/05/16 01:44:13;;;;;;;1.67;1.40;;;;;;;11.54;61.63;98455.00;5034825;28;20040;-63
2022/05/16 01:46:40;;;;;;;2.85;1.60;;;;;;;11.60;61.40;98447.81;5015043;28;20105;-63
2022/05/16 01:49:08;;;;;;;2.88;1.48;;;;;;;11.17;62.09;98397.03;5028678;28;20037;-64
2022/05/16 01:51:34;;;;;;;5.50;1.77;;;;;;;11.57;61.57;98460.03;5035178;28;20057;-63
2022/05/16 01:54:03;;;;;;;5.18;2.00;;;;;;;11.60;61.78;98458.19;5021464;28;20104;-63
2022/05/16 01:56:32;;;;;;;3.67;1.90;;;;;;;11.51;62.11;98455.09;5006450;28;20494;-63
2022/05/16 01:58:59;;;;;;;3.60;2.08;;;;;;;11.47;61.75;98456.19;4995468;28;20501;-64
2022/05/16 02:01:24;;;;;;;3.28;1.73;;;;;;;11.49;61.63;98458.72;4995719;28;20022;-64
2022/05/16 02:03:50;;;;;;;3.17;1.63;;;;;;;11.45;62.82;98460.59;4994740;28;20539;-65
2022/05/16 02:06:16;;;;;;;3.63;2.00;;;;;;;11.48;62.32;98459.59;4995454;28;20121;-65
2022/05/16 02:08:43;;;;;;;2.22;1.65;;;;;;;11.34;63.11;98462.81;4995482;28;20037;-64
2022/05/16 02:11:09;;;;;;;3.17;1.60;;;;;;;11.40;62.41;98465.13;4995584;28;20452;-64
2022/05/16 02:13:39;;;;;;;5.40;2.17;;;;;;;11.35;63.17;98464.50;4995475;28;20137;-65
2022/05/16 02:16:06;;;;;;;3.33;1.92;;;;;;;11.40;62.78;98470.31;5006941;28;20460;-63
2022/05/16 02:18:32;;;;;;;2.97;1.80;;;;;;;11.33;62.93;98461.97;5006360;28;20121;-62
2022/05/16 02:26:27;;;;;;;3.75;1.70;;;;;;;11.43;62.73;98454.63;5034577;28;20116;-64
2022/05/16 02:28:52;;;;;;;6.13;1.73;;;;;;;11.55;62.63;98461.84;4995822;28;20030;-64
2022/05/16 02:31:20;;;;;;;1.55;1.45;;;;;;;11.65;61.49;98471.81;4994866;28;20035;-63
2022/05/16 02:33:46;;;;;;;2.97;1.67;;;;;;;11.53;61.23;98470.63;5005087;28;20089;-63
2022/05/16 02:36:12;;;;;;;5.72;2.03;;;;;;;11.35;62.96;98469.69;5010308;28;20034;-63
2022/05/16 02:38:38;;;;;;;4.50;1.50;;;;;;;11.34;61.96;98475.78;4995544;28;20041;-62
2022/05/16 02:41:03;;;;;;;2.80;1.35;;;;;;;11.55;61.49;98474.81;5014788;28;20026;-63
2022/05/16 02:43:29;;;;;;;2.30;1.30;;;;;;;11.60;61.61;98473.75;5014400;28;20029;-62
2022/05/16 02:45:54;;;;;;;4.38;2.10;;;;;;;11.63;60.21;98477.06;5025259;28;20108;-62
2022/05/16 02:48:20;;;;;;;3.25;1.60;;;;;;;11.61;60.64;98478.03;5033880;28;20030;-63
2022/05/16 02:50:46;;;;;;;1.95;1.35;;;;;;;11.61;60.72;98475.44;5031899;28;20044;-63
2022/05/16 02:53:11;;;;;;;1.98;1.60;;;;;;;11.80;60.37;98481.50;5029536;28;20388;-62
2022/05/16 02:55:37;;;;;;;1.83;1.38;;;;;;;11.83;60.64;98481.34;5025036;28;20558;-63
2022/05/16 02:58:02;;;;;;;2.13;1.10;;;;;;;11.80;60.86;98483.22;5002032;28;20657;-62
2022/05/16 03:00:28;;;;;;;1.42;1.33;;;;;;;11.86;60.68;98490.75;5009214;28;20028;-61
2022/05/16 03:02:53;;;;;;;1.30;1.20;;;;;;;11.67;60.11;98488.13;5030705;28;20030;-61
2022/05/16 03:05:19;;;;;;;4.53;1.40;;;;;;;11.56;59.78;98484.28;5013680;28;20096;-62
2022/05/16 03:07:45;;;;;;;2.60;1.63;;;;;;;11.38;60.62;98480.75;5030442;28;20029;-62
2022/05/16 03:10:15;;;;;;;1.52;1.25;;;;;;;11.72;59.69;98502.56;5033592;28;20105;-62
2022/05/16 03:12:43;;;;;;;3.85;1.30;;;;;;;11.81;59.68;98492.69;5033789;28;20033;-62
2022/05/16 03:15:09;;;;;;;3.72;1.27;;;;;;;11.69;59.47;98492.34;5028673;28;20112;-62
2022/05/16 03:17:34;;;;;;;2.00;1.15;;;;;;;11.79;59.15;98495.38;5013396;28;20022;-63
2022/05/16 03:20:00;;;;;;;3.70;1.40;;;;;;;11.61;59.82;98504.81;4993997;28;20073;-62
2022/05/16 03:22:26;;;;;;;2.30;1.23;;;;;;;11.78;59.22;98498.84;5024561;28;20021;-63
2022/05/16 03:24:51;;;;;;;3.85;1.45;;;;;;;11.78;59.42;98493.66;5012038;28;20030;-63
2022/05/16 03:27:17;;;;;;;4.43;1.40;;;;;;;11.85;59.24;98507.22;4994057;28;20033;-62
2022/05/16 03:29:42;;;;;;;1.83;1.27;;;;;;;11.86;59.51;98503.72;4994147;28;20026;-64
2022/05/16 03:32:08;;;;;;;1.05;1.05;;;;;;;11.68;60.11;98507.97;5009013;28;20042;-66
2022/05/16 03:34:34;;;;;;;1.77;1.15;;;;;;;11.67;59.27;98507.16;4995295;28;20047;-63
2022/05/16 03:36:59;;;;;;;1.67;1.10;;;;;;;11.80;59.47;98510.03;5013366;28;20060;-63
2022/05/16 03:42:09;;;;;;;3.65;1.10;;;;;;;11.63;58.59;98495.22;4993988;28;20034;-64
2022/05/16 03:44:34;;;;;;;1.35;0.95;;;;;;;11.66;59.03;98505.44;4996536;28;20037;-64
2022/05/16 03:47:00;;;;;;;2.58;1.30;;;;;;;11.76;58.89;98495.50;4993672;28;20041;-63
2022/05/16 03:49:26;;;;;;;5.20;1.10;;;;;;;11.68;58.54;98501.03;4993472;28;20049;-63
2022/05/16 03:51:51;;;;;;;4.68;1.33;;;;;;;11.62;59.41;98505.66;4993564;28;20081;-63
2022/05/16 03:54:17;;;;;;;1.23;1.13;;;;;;;11.77;58.48;98504.94;4998939;28;20022;-63
2022/05/16 03:56:43;;;;;;;4.30;1.30;;;;;;;11.81;58.47;98506.50;5005812;28;20029;-62
2022/05/16 03:59:11;;;;;;;3.97;1.45;;;;;;;11.88;58.69;98510.50;4993219;28;20472;-63
2022/05/16 04:01:37;;;;;;;1.73;1.20;;;;;;;11.89;58.08;98508.75;4993099;28;20077;-64
2022/05/16 04:04:03;;;;;;;1.55;1.00;;;;;;;12.09;58.03;98510.47;4993160;28;20717;-65
2022/05/16 04:06:29;;;;;;;3.17;1.25;;;;;;;12.01;57.81;98507.38;4993159;28;20030;-65
2022/05/16 04:08:54;;;;;;;1.17;0.93;;;;;;;12.26;57.20;98504.47;4993152;28;20381;-65
2022/05/16 04:11:20;;;;;;;3.65;1.15;;;;;;;12.32;56.90;98506.78;4993291;28;20054;-66
2022/05/16 04:13:47;;;;;;;3.13;1.10;;;;;;;12.43;56.20;98501.91;4992996;28;20054;-64
2022/05/16 04:16:13;;;;;;;1.27;1.10;;;;;;;12.38;56.36;98503.03;5005595;28;20113;-63
2022/05/16 04:18:40;;;;;;;5.15;1.20;;;;;;;12.52;56.44;98503.22;5004231;28;20114;-64
2022/05/16 04:21:05;;;;;;;4.63;1.10;;;;;;;12.74;55.82;98510.81;4992724;28;20045;-65
2022/05/16 04:23:32;;;;;;;6.15;1.20;;;;;;;12.78;55.37;98512.34;4993066;28;20459;-65
2022/05/16 04:25:58;;;;;;;5.30;1.23;;;;;;;12.84;54.56;98506.00;4992795;28;20113;-64
2022/05/16 04:28:23;;;;;;;2.10;1.05;;;;;;;12.86;55.08;98505.91;4993391;28;20101;-64
2022/05/16 04:30:49;;;;;;;2.55;1.10;;;;;;;13.09;53.84;98500.38;4992942;28;20459;-64
2022/05/16 04:33:14;;;;;;;2.90;1.10;;;;;;;13.44;54.13;98507.34;5003819;28;20471;-65
2022/05/16 04:35:40;;;;;;;2.45;0.90;;;;;;;13.51;53.97;98506.09;5014394;28;20046;-64
2022/05/16 04:38:06;;;;;;;2.05;0.90;;;;;;;13.84;52.33;98500.00;5011605;28;20034;-64
2022/05/16 04:40:33;;;;;;;2.08;0.85;;;;;;;14.00;51.94;98497.41;5012275;28;20049;-64
2022/05/16 04:42:59;;;;;;;2.55;1.10;;;;;;;14.08;50.85;98486.56;5012013;28;20087;-64
2022/05/16 04:45:30;;;;;;;3.90;1.08;;;;;;;14.36;49.70;98482.41;5010353;28;20029;-62
2022/05/16 04:47:58;;;;;;;2.03;1.20;;;;;;;14.94;48.23;98501.72;4999508;28;20041;-65
2022/05/16 04:50:29;;;;;;;3.33;1.20;;;;;;;16.12;46.45;98488.47;5031632;28;20076;-64
2022/05/16 04:52:56;;;;;;;2.20;1.07;;;;;;;17.12;44.04;98498.59;5001400;28;20463;-65
2022/05/16 04:55:22;;;;;;;2.55;0.95;;;;;;;17.19;43.29;98495.44;4997837;28;20034;-64
2022/05/16 04:57:49;;;;;;;2.28;1.42;;;;;;;17.63;41.57;98495.94;4992470;28;20034;-64
2022/05/16 05:00:17;;;;;;;1.83;0.90;;;;;;;17.69;41.64;98492.88;4992696;28;20511;-64
2022/05/16 05:02:44;;;;;;;2.58;1.05;;;;;;;17.60;41.50;98488.31;4992148;28;20061;-66
2022/05/16 05:05:10;;;;;;;2.83;1.13;;;;;;;17.56;42.53;98494.69;5010147;28;20127;-63
2022/05/16 05:07:37;;;;;;;3.13;1.40;;;;;;;17.64;42.05;98488.91;4999592;28;20022;-65
2022/05/16 05:15:38;;;;;;;1.50;0.90;;;;;;;17.76;41.50;98486.28;5011360;28;20034;-64
2022/05/16 05:18:04;;;;;;;2.70;1.15;;;;;;;17.33;40.71;98489.28;5014841;28;20018;-62
2022/05/16 05:20:32;;;;;;;4.20;1.35;;;;;;;16.87;40.87;98492.34;5031437;28;20091;-63
2022/05/16 05:22:59;;;;;;;2.88;1.38;;;;;;;16.80;43.39;98488.47;5006759;28;20022;-64
2022/05/16 05:25:25;;;;;;;3.63;1.00;;;;;;;16.45;42.12;98491.63;4996660;28;20070;-64
2022/05/16 05:27:51;;;;;;;2.45;0.80;;;;;;;16.33;43.45;98483.66;4990882;28;20027;-64
2022/05/16 05:30:25;;;;;;;1.52;0.80;;;;;;;16.23;43.40;98487.75;4983054;28;20383;-65
2022/05/16 05:32:52;;;;;;;2.05;0.98;;;;;;;16.28;41.61;98492.72;5014874;28;20416;-65
2022/05/16 05:35:19;;;;;;;3.22;1.10;;;;;;;16.69;41.74;98484.78;5006839;28;20123;-64
2022/05/16 05:37:45;;;;;;;2.40;0.90;;;;;;;16.42;41.90;98487.44;5010498;28;20526;-63
2022/05/16 05:40:11;;;;;;;1.70;0.70;;;;;;;16.48;42.42;98483.59;5001525;28;20042;-65
2022/05/16 05:42:37;;;;;;;0.98;0.98;;;;;;;16.53;43.88;98492.81;5007877;28;20030;-62
2022/05/16 05:45:04;;;;;;;4.68;1.23;;;;;;;16.28;43.53;98487.50;5009284;28;20547;-62
2022/05/16 05:47:30;;;;;;;2.33;0.82;;;;;;;15.79;44.19;98488.81;5011272;28;20040;-63
2022/05/16 05:49:55;;;;;;;4.28;1.17;;;;;;;15.62;44.31;98487.22;5012016;28;20037;-62
2022/05/16 05:52:21;;;;;;;2.35;1.10;;;;;;;15.47;44.90;98483.78;5013420;28;20157;-63
2022/05/16 05:54:48;;;;;;;4.97;1.10;;;;;;;15.77;44.03;98488.06;5009741;28;20029;-64
2022/05/16 05:57:16;;;;;;;3.95;0.90;;;;;;;15.23;43.54;98419.13;5015276;28;20049;-64
2022/05/16 05:59:42;;;;;;;6.07;0.90;;;;;;;15.28;45.11;98490.13;5010823;28;20026;-63
2022/05/16 06:02:09;;;;;;;3.80;1.00;;;;;;;15.04;43.75;98494.19;5011974;28;20050;-63
2022/05/16 06:04:35;;;;;;;3.05;0.77;;;;;;;15.09;43.71;98492.13;5015983;28;20110;-63
2022/05/16 06:07:01;;;;;;;6.40;1.00;;;;;;;14.86;43.45;98489.13;5016018;28;20025;-62
2022/05/16 06:09:27;;;;;;;2.88;0.90;;;;;;;15.16;43.72;98488.22;5013252;28;20037;-63
2022/05/16 06:11:54;;;;;;;3.75;1.00;;;;;;;15.14;44.94;98484.88;5014312;28;20064;-65
2022/05/16 06:14:19;;;;;;;2.05;0.88;;;;;;;15.61;42.82;98483.78;5011826;28;20088;-65
2022/05/16 06:16:45;;;;;;;3.42;0.90;;;;;;;15.63;43.13;98476.66;5015180;28;20030;-64
2022/05/16 06:19:11;;;;;;;2.78;0.85;;;;;;;15.60;43.84;98479.47;5015818;28;20029;-62
2022/05/16 06:21:38;;;;;;;4.75;0.90;;;;;;;15.65;43.82;98480.03;5010334;28;20162;-62
2022/05/16 06:24:04;;;;;;;5.65;1.10;;;;;;;15.43;45.75;98487.50;5010415;28;20034;-61
2022/05/16 06:26:31;;;;;;;6.38;1.05;;;;;;;15.30;44.64;98488.25;5012390;28;20079;-64
2022/05/16 06:28:57;;;;;;;2.40;0.85;;;;;;;14.88;43.44;98489.88;5008711;28;20026;-65
2022/05/16 06:31:22;;;;;;;2.88;0.80;;;;;;;14.90;45.08;98497.63;5012823;28;20036;-64
2022/05/16 06:33:48;;;;;;;3.80;0.82;;;;;;;14.79;44.45;98493.00;5010259;28;20058;-64
2022/05/16 06:36:15;;;;;;;3.53;0.90;;;;;;;14.60;44.55;98477.56;5012752;28;20060;-64
2022/05/16 06:38:41;;;;;;;3.00;0.85;;;;;;;14.52;44.47;98493.63;5011381;28;20522;-65
2022/05/16 06:41:07;;;;;;;2.75;1.00;;;;;;;14.54;44.87;98493.56;5012407;28;20061;-64
2022/05/16 06:43:34;;;;;;;4.03;1.10;;;;;;;14.67;44.89;98486.75;5007288;28;20369;-64
2022/05/16 06:46:02;;;;;;;3.90;0.90;;;;;;;14.63;46.86;98486.06;5005049;28;20100;-64
2022/05/16 06:48:29;;;;;;;3.53;1.13;;;;;;;14.62;45.83;98497.44;5011096;28;20097;-64
2022/05/16 06:50:55;;;;;;;2.10;0.80;;;;;;;14.75;45.85;98491.50;5013018;28;20119;-64
2022/05/16 06:53:24;;;;;;;2.15;0.80;;;;;;;14.90;44.74;98493.22;5014370;28;20026;-64
2022/05/16 06:55:50;;;;;;;4.00;1.33;;;;;;;14.43;44.74;98494.16;5011422;28;20026;-64
2022/05/16 06:58:16;;;;;;;5.50;0.80;;;;;;;14.44;45.63;98498.47;5013925;28;20032;-64
2022/05/16 07:00:41;;;;;;;4.43;0.80;;;;;;;14.39;47.38;98496.09;5011065;28;20041;-64
2022/05/16 07:03:09;;;;;;;3.28;0.85;;;;;;;14.43;46.74;98507.19;5017400;28;20033;-64
2022/05/16 07:05:34;;;;;;;1.73;0.75;;;;;;;14.09;46.51;98496.88;5021508;28;20105;-65
2022/05/16 07:08:00;;;;;;;3.10;1.10;;;;;;;14.15;46.66;98508.72;4996377;28;20026;-65
2022/05/16 07:10:26;;;;;;;1.70;0.80;;;;;;;14.03;49.10;98510.25;4994618;28;20379;-63
2022/05/16 07:12:51;;;;;;;4.18;1.00;;;;;;;14.04;49.03;98496.31;5003369;28;20361;-64
2022/05/16 07:15:17;;;;;;;5.70;1.30;;;;;;;13.85;49.26;98509.47;5018262;28;20466;-63
2022/05/16 07:17:43;;;;;;;2.53;1.05;;;;;;;13.81;48.46;98507.97;5013718;28;20022;-65
2022/05/16 07:20:10;;;;;;;3.85;0.80;;;;;;;13.95;49.43;98509.81;5013919;28;20395;-64
2022/05/16 07:22:40;;;;;;;2.40;1.15;;;;;;;13.95;48.68;98508.06;5013957;28;20116;-65
2022/05/16 07:25:06;;;;;;;7.00;1.63;;;;;;;14.03;47.72;98509.41;5013757;28;20563;-65
2022/05/16 07:30:16;;;;;;;2.60;1.00;;;;;;;13.94;48.30;98508.16;5007447;28;20030;-64
2022/05/16 07:32:44;;;;;;;2.83;0.98;;;;;;;13.66;47.71;98475.81;5012054;28;20514;-64
2022/05/16 07:35:19;;;;;;;3.47;1.00;;;;;;;13.81;47.84;98506.22;5010291;28;20049;-64
2022/05/16 07:37:45;;;;;;;5.63;1.45;;;;;;;13.94;48.59;98511.59;5012002;28;20037;-64
2022/05/16 07:40:12;;;;;;;3.28;1.38;;;;;;;13.69;47.38;98517.25;5010299;28;20025;-65
2022/05/16 07:42:38;;;;;;;4.88;1.50;;;;;;;13.69;46.62;98519.88;5010281;28;20037;-65
2022/05/16 07:45:06;;;;;;;3.50;1.65;;;;;;;13.20;49.06;98483.41;5011345;28;20468;-64
2022/05/16 07:47:32;;;;;;;3.83;1.10;;;;;;;13.34;52.10;98529.47;5013176;28;20093;-64
2022/05/16 07:49:59;;;;;;;5.05;0.88;;;;;;;13.00;52.08;98523.41;5014546;28;20025;-63
2022/05/16 07:52:25;;;;;;;4.65;1.38;;;;;;;13.20;53.12;98525.84;5008663;28;20022;-64
2022/05/16 07:54:51;;;;;;;5.38;1.30;;;;;;;13.36;53.24;98527.69;5006479;28;20026;-63
2022/05/16 07:57:17;;;;;;;1.55;1.10;;;;;;;13.08;52.96;98516.06;5010981;28;20491;-63
2022/05/16 07:59:43;;;;;;;5.32;1.40;;;;;;;13.21;54.68;98521.47;5009943;28;20024;-63
2022/05/16 08:02:09;;;;;;;5.05;1.23;;;;;;;13.23;53.32;98519.66;5010280;28;20092;-63
2022/05/16 08:04:35;;;;;;;4.00;1.08;;;;;;;13.45;52.79;98519.41;5014289;28;20092;-63
2022/05/16 08:07:04;;;;;;;2.63;1.05;;;;;;;13.55;53.09;98506.75;5011211;28;20056;-64
2022/05/16 08:12:21;;;;;;;4.85;1.35;;;;;;;13.62;50.36;98506.38;5008889;28;20065;-64
2022/05/16 08:14:47;;;;;;;3.47;1.40;;;;;;;13.78;49.76;98495.09;5009140;28;20079;-63
2022/05/16 08:17:12;;;;;;;3.35;1.10;;;;;;;13.78;49.59;98495.97;5008137;28;20018;-63
2022/05/16 08:19:38;;;;;;;4.53;1.20;;;;;;;14.04;49.15;98505.88;5013042;28;20022;-64
2022/05/16 08:22:03;;;;;;;2.17;1.15;;;;;;;14.06;49.38;98506.63;5012508;28;20046;-64
2022/05/16 08:24:29;;;;;;;3.40;1.10;;;;;;;14.03;47.51;98505.03;5012850;28;20029;-65
2022/05/16 08:26:55;;;;;;;3.88;1.00;;;;;;;13.90;46.63;98494.47;5012405;28;20034;-64
2022/05/16 08:29:20;;;;;;;1.15;0.60;;;;;;;13.79;44.69;98502.84;5001894;28;20484;-65
2022/05/16 08:31:46;;;;;;;0.90;0.60;;;;;;;13.83;45.09;98503.53;5024049;28;20021;-64
2022/05/16 08:34:11;;;;;;;3.38;0.90;;;;;;;13.96;44.84;98508.91;5003480;28;20093;-63
2022/05/16 08:42:09;;;;;;;4.25;1.42;;;;;;;13.64;54.46;98516.69;5014577;28;20491;-62
2022/05/16 08:44:41;;;;;;;4.95;1.13;;;;;;;13.60;52.76;98513.38;5011831;28;20480;-63
2022/05/16 08:47:38;;;;;;;2.65;0.73;;;;;;;13.66;52.34;98522.63;4994142;28;20034;-62
2022/05/16 08:50:56;;;;;;;1.10;1.00;;;;;;;13.72;53.31;98516.25;4998894;28;20042;-63
2022/05/16 08:53:28;;;;;;;4.78;1.10;;;;;;;13.25;52.66;98479.66;5003493;28;20073;-63
2022/05/16 08:55:58;;;;;;;2.55;1.10;;;;;;;13.15;56.64;98457.63;5029189;28;20034;-62
2022/05/16 08:58:29;;;;;;;2.20;0.90;;;;;;;13.03;54.07;98476.47;5007007;28;20034;-63
2022/05/16 09:00:59;;;;;;;3.50;1.10;;;;;;;13.50;53.81;98553.00;4993314;28;20109;-62
2022/05/16 09:03:46;;;;;;;2.20;0.70;;;;;;;13.34;53.54;98540.75;4993114;28;20030;-63
2022/05/16 09:06:18;;;;;;;3.13;1.05;;;;;;;13.18;55.48;98475.69;4999553;28;20037;-63
2022/05/16 09:08:55;;;;;;;2.38;1.00;;;;;;;13.09;58.17;98456.19;5011569;28;20041;-64
2022/05/16 09:11:35;;;;;;;2.97;1.00;;;;;;;13.20;54.52;98463.44;5009223;28;20479;-62
2022/05/16 09:14:05;;;;;;;3.20;1.00;;;;;;;13.63;54.24;98496.78;5026532;28;20034;-64
2022/05/16 09:16:51;;;;;;;2.72;0.95;;;;;;;13.90;56.42;98512.69;5010795;28;20022;-63
2022/05/16 09:19:26;;;;;;;3.72;1.27;;;;;;;13.93;53.62;98520.31;5008463;28;20074;-63
2022/05/16 09:21:57;;;;;;;3.30;1.10;;;;;;;14.13;50.63;98519.22;5012004;28;20091;-63
2022/05/16 09:24:28;;;;;;;3.38;1.83;;;;;;;13.98;50.88;98504.47;5013130;28;20526;-64
2022/05/16 09:27:14;;;;;;;5.90;1.40;;;;;;;14.09;50.48;98511.66;5015726;28;20041;-64
2022/05/16 09:29:45;;;;;;;4.85;2.83;;;;;;;13.86;51.37;98515.53;5015546;28;20079;-64
2022/05/16 09:32:27;;;;;;;2.78;1.60;;;;;;;13.76;50.32;98536.00;5015269;28;20053;-65
2022/05/16 09:34:54;;;;;;;8.52;2.25;;;;;;;13.71;52.19;98535.38;5015761;28;20042;-64
2022/05/16 09:37:20;;;;;;;3.47;2.00;;;;;;;13.59;51.24;98519.50;5015615;28;20041;-64
2022/05/16 09:39:48;;;;;;;4.10;1.40;;;;;;;13.77;48.91;98515.09;5014696;28;20080;-64
2022/05/16 09:42:20;;;;;;;2.25;1.00;;;;;;;13.79;50.15;98528.03;5017138;28;20084;-64
2022/05/16 09:44:59;;;;;;;;;;;;;;;13.91;47.61;98519.56;5033419;28;20034;-63
2022/05/16 09:47:28;;;;;;;1.75;0.70;;;;;;;14.08;48.40;98520.41;5014575;28;19909;-64
2022/05/16 09:50:02;;;;;;;1.65;0.90;;;;;;;14.15;47.53;98509.59;5015811;28;20541;-63
2022/05/16 09:52:42;;;;;;;2.13;0.90;;;;;;;13.91;45.03;98458.84;5028918;28;20033;-63
2022/05/16 09:55:33;;;;;;;1.25;0.70;;;;;;;13.99;44.76;98456.66;5026693;28;20043;-63
2022/05/16 09:58:04;;;;;;;3.08;1.15;;;;;;;14.13;45.59;98463.72;5025632;28;20022;-64
2022/05/16 10:00:38;;;;;;;1.60;1.00;;;;;;;14.67;43.83;98508.44;5007959;28;20034;-64
2022/05/16 10:03:42;;;;;;;1.27;0.90;;;;;;;14.89;45.11;98504.56;5014609;28;20100;-64
2022/05/16 10:06:26;;;;;;;2.10;0.98;;;;;;;14.71;45.50;98467.41;4972339;28;20559;-64
2022/05/16 10:08:51;;;;;;;1.45;0.80;;;;;;;14.88;45.50;98510.75;4971564;28;20066;-64
2022/05/16 10:11:28;;;;;;;3.42;1.00;;;;;;;14.71;44.20;98510.84;4972323;28;20063;-64
2022/05/16 10:13:55;;;;;;;3.05;1.00;;;;;;;14.71;44.25;98511.72;4972420;28;20054;-64
2022/05/16 10:16:24;;;;;;;4.50;0.85;;;;;;;14.73;42.55;98524.66;4971197;28;20057;-64
2022/05/16 10:19:05;;;;;;;2.50;0.65;;;;;;;14.88;43.25;98502.91;4973677;28;20085;-64
2022/05/16 10:21:35;;;;;;;1.20;0.80;;;;;;;15.00;42.31;98490.91;4969581;28;20039;-64
2022/05/16 10:24:04;;;;;;;3.53;2.00;;;;;;;15.20;43.30;98534.06;4954698;28;20047;-63
2022/05/16 10:26:34;;;;;;;5.10;0.90;;;;;;;14.53;42.31;98471.03;4962671;28;20515;-64
2022/05/16 10:29:07;;;;;;;2.40;0.73;;;;;;;14.78;43.09;98535.66;4957122;28;20047;-63
2022/05/16 10:34:42;;;;;;;4.03;0.90;;;;;;;14.92;43.35;98496.59;4973361;28;20555;-65
2022/05/16 10:37:09;;;;;;;2.95;0.80;;;;;;;14.91;44.17;98507.13;4997817;28;20049;-65
2022/05/16 10:39:42;;;;;;;5.20;0.98;;;;;;;14.93;45.14;98468.75;5019925;28;20034;-63
2022/05/16 10:42:26;;;;;;;2.67;0.80;;;;;;;15.14;43.28;98503.97;5019511;28;20025;-63
2022/05/16 10:44:58;;;;;;;3.20;0.93;;;;;;;14.85;43.69;98464.00;5031236;28;20057;-64
2022/05/16 10:47:46;;;;;;;1.48;0.70;;;;;;;15.34;42.87;98509.78;4998254;28;20081;-63
2022/05/16 10:50:13;;;;;;;1.23;0.57;;;;;;;15.35;42.28;98507.06;4999217;28;20492;-63
2022/05/16 10:52:48;;;;;;;2.58;1.10;;;;;;;15.19;39.39;98516.72;5008081;28;20037;-64
2022/05/16 10:55:14;;;;;;;2.05;0.80;;;;;;;15.23;39.45;98509.59;5003950;28;20034;-64
2022/05/16 10:57:55;;;;;;;7.38;1.17;;;;;;;15.47;41.60;98515.09;5012211;28;20141;-64
2022/05/16 11:00:34;;;;;;;0.95;0.70;;;;;;;15.64;39.41;98480.13;4997899;28;20025;-64
2022/05/16 11:03:08;;;;;;;2.08;0.73;;;;;;;15.67;40.69;98495.59;4994836;28;20495;-64
2022/05/16 11:05:48;;;;;;;1.08;0.60;;;;;;;15.51;41.01;98513.97;5011751;28;20156;-64
2022/05/16 11:08:29;;;;;;;0.88;0.60;;;;;;;15.70;40.70;98509.31;5011708;28;20101;-64
2022/05/16 11:11:03;;;;;;;0.90;0.88;;;;;;;15.35;41.50;98494.03;5005340;28;20026;-64
2022/05/16 11:13:42;;;;;;;3.35;0.70;;;;;;;15.44;43.36;98516.13;5000686;28;20492;-64
2022/05/16 11:16:27;;;;;;;6.53;1.10;;;;;;;14.81;46.79;98518.06;5005204;28;20042;-64
2022/05/16 11:19:21;;;;;;;8.73;1.50;;;;;;;14.79;45.91;98521.69;5007791;28;20492;-64
2022/05/16 11:22:01;;;;;;;1.83;0.60;;;;;;;14.61;48.58;98528.78;5010389;28;20065;-62
2022/05/16 11:24:35;;;;;;;2.28;0.60;;;;;;;14.48;49.76;98528.63;5007287;28;20077;-63
2022/05/16 11:27:20;;;;;;;1.80;0.60;;;;;;;14.72;48.53;98517.75;5002427;28;20038;-63
2022/05/16 11:30:05;;;;;;;4.45;1.10;;;;;;;14.97;48.75;98514.56;4995044;28;20479;-64
2022/05/16 11:32:49;;;;;;;0.82;0.65;;;;;;;14.83;46.27;98515.38;4994553;28;20038;-64
2022/05/16 11:35:39;;;;;;;1.42;1.00;;;;;;;15.01;46.40;98511.69;5002631;28;20447;-64
2022/05/16 11:38:29;;;;;;;2.92;1.15;;;;;;;14.77;42.00;98506.13;5001473;28;20036;-64
2022/05/16 11:41:16;;;;;;;1.33;0.80;;;;;;;14.77;42.25;98497.50;5000859;28;20104;-64
2022/05/16 11:43:44;;;;;;;1.05;0.80;;;;;;;14.90;42.05;98521.91;5000085;28;20030;-64
2022/05/16 11:46:32;;;;;;;2.25;0.90;;;;;;;14.72;41.75;98497.75;5019164;28;20141;-63
2022/05/16 11:49:09;;;;;;;1.35;0.90;;;;;;;14.96;41.33;98497.25;5003998;28;20129;-63
2022/05/16 11:51:48;;;;;;;4.90;1.48;;;;;;;15.07;42.33;98496.63;5001799;28;20025;-64
2022/05/16 11:54:18;;;;;;;0.75;0.70;;;;;;;15.10;40.59;98467.75;5018819;28;20036;-63
2022/05/16 12:02:27;;;;;;;5.50;1.17;;;;;;;15.60;40.89;98463.81;5031990;28;20037;-63
2022/05/16 12:05:02;;;;;;;2.35;1.00;;;;;;;15.53;40.76;98473.81;5017600;28;20030;-63
2022/05/16 12:07:32;;;;;;;1.42;0.70;;;;;;;15.50;42.80;98475.75;5001463;28;20040;-63
2022/05/16 12:10:01;;;;;;;1.30;0.80;;;;;;;15.26;42.98;98450.22;4992814;28;20053;-63
2022/05/16 12:12:31;;;;;;;1.67;0.90;;;;;;;15.38;40.09;98493.00;5007297;28;20033;-64
2022/05/16 12:15:21;;;;;;;1.85;0.80;;;;;;;15.48;39.14;98475.88;5011683;28;20474;-63
2022/05/16 12:17:56;;;;;;;4.05;0.90;;;;;;;15.56;39.02;98475.38;5005821;28;20101;-63
2022/05/16 12:20:42;;;;;;;4.20;0.73;;;;;;;15.66;38.43;98467.81;4993106;28;20376;-63